Weather at Jenkins Airport

Public forecast

Using degrees Fahrenheit for public forecast. Weather courtesy of forecast.io.

Closest aviation weather report (METAR) to Jenkins Airport

Closest report is Roswell Air Center Airport, 4.8 nm (9.0 km) NW. Retrieved 2022/01/22 20:51 UTC (32 minutes ago):

KROW 222051Z 00000KT 10SM CLR 08/M07 A3029 RMK AO2 SLP252 T00831072 58029

Closest aviation forecast (TAF) to Jenkins Airport

Closest forecast is Roswell Air Center Airport, 4.8 nm (9.0 km) NW. Retrieved 2022/01/22 18:30 UTC (3 hours ago):

TAF KROW 221727Z 2218/2318 01007KT P6SM SKC FM222000 14008KT P6SM SCT050 FM230200 VRB06KT P6SM OVC035 FM230900 VRB06KT P6SM OVC025 FM231700 16006KT P6SM BKN035